Time;durP1;ratioP1;P1;durP2;ratioP2;P2;SDS_P1;SDS_P2;PMS_P1;PMS_P2;Temp;Humidity;BMP_temperature;BMP_pressure;BME280_temperature;BME280_humidity;BME280_pressure;Samples;Min_cycle;Max_cycle;Signal;HPM_P1;HPM_P2
2023/11/13 00:00:05;;;;;;;32.23;20.87;;;5.40;99.90;;;;;;5100497;28;20280;-47
2023/11/13 00:02:36;;;;;;;30.87;19.67;;;5.40;99.90;;;;;;5098549;28;20257;-48
2023/11/13 00:05:04;;;;;;;31.53;19.53;;;5.30;99.90;;;;;;5099498;28;20255;-47
2023/11/13 00:07:31;;;;;;;33.60;18.77;;;5.30;99.90;;;;;;5065046;28;20312;-45
2023/11/13 00:09:58;;;;;;;30.33;18.30;;;5.30;99.90;;;;;;5094832;28;20907;-46
2023/11/13 00:12:25;;;;;;;31.10;19.97;;;5.30;99.90;;;;;;5101570;28;20201;-48
2023/11/13 00:14:52;;;;;;;28.77;18.77;;;5.30;99.90;;;;;;5098878;28;20189;-47
2023/11/13 00:17:19;;;;;;;29.87;18.50;;;5.20;99.90;;;;;;5103413;28;20686;-47
2023/11/13 00:19:48;;;;;;;35.47;18.47;;;5.20;99.90;;;;;;5098604;28;20189;-45
2023/11/13 00:22:14;;;;;;;29.07;19.00;;;5.20;99.90;;;;;;5072435;28;20255;-47
2023/11/13 00:24:41;;;;;;;30.20;18.73;;;5.20;99.90;;;;;;5090145;28;20728;-45
2023/11/13 00:27:08;;;;;;;31.47;18.30;;;5.20;99.90;;;;;;5102067;28;20205;-46
2023/11/13 00:29:35;;;;;;;33.90;19.03;;;5.20;99.90;;;;;;5101438;28;20208;-47
2023/11/13 00:32:02;;;;;;;29.33;17.60;;;5.10;99.90;;;;;;5099200;28;20258;-51
2023/11/13 00:34:28;;;;;;;27.73;17.77;;;5.10;99.90;;;;;;5100353;28;20544;-48
2023/11/13 00:36:57;;;;;;;25.87;17.33;;;5.20;99.90;;;;;;5067779;28;20956;-49
2023/11/13 00:39:24;;;;;;;29.07;17.37;;;5.10;99.90;;;;;;5094901;28;20197;-47
2023/11/13 00:41:51;;;;;;;25.97;17.43;;;5.20;99.90;;;;;;5099427;28;20185;-45
2023/11/13 00:44:18;;;;;;;27.37;17.63;;;5.20;99.90;;;;;;5102301;28;20189;-48
2023/11/13 00:46:45;;;;;;;31.83;18.73;;;5.10;99.90;;;;;;5098753;28;20262;-48
2023/11/13 00:49:12;;;;;;;26.23;17.63;;;5.10;99.90;;;;;;5100976;28;20672;-48
2023/11/13 00:51:39;;;;;;;27.43;16.60;;;5.10;99.90;;;;;;5073305;28;20205;-46
2023/11/13 00:54:07;;;;;;;26.80;17.80;;;5.10;99.90;;;;;;5096459;28;20205;-46
2023/11/13 00:56:34;;;;;;;26.30;16.37;;;5.10;99.90;;;;;;5091979;28;20216;-49
2023/11/13 00:59:01;;;;;;;26.93;16.53;;;5.10;99.90;;;;;;5099568;28;20195;-47
2023/11/13 01:01:28;;;;;;;26.20;16.67;;;5.10;99.90;;;;;;5099450;28;20702;-48
2023/11/13 01:03:55;;;;;;;26.27;17.40;;;5.10;99.90;;;;;;5098032;28;20186;-45
2023/11/13 01:06:23;;;;;;;26.60;16.80;;;5.10;99.90;;;;;;5100692;28;20224;-45
2023/11/13 01:08:50;;;;;;;31.50;17.70;;;5.00;99.90;;;;;;5068298;28;20193;-45
2023/11/13 01:11:18;;;;;;;26.47;16.87;;;5.00;99.90;;;;;;5093620;28;20541;-45
2023/11/13 01:13:46;;;;;;;22.17;15.67;;;4.80;99.90;;;;;;5098352;28;20177;-48
2023/11/13 01:16:13;;;;;;;22.87;15.27;;;4.80;99.90;;;;;;5102045;28;20718;-46
2023/11/13 01:18:40;;;;;;;21.80;15.03;;;4.80;99.90;;;;;;5097528;28;20196;-49
2023/11/13 01:21:07;;;;;;;24.50;15.97;;;4.70;99.90;;;;;;5103388;28;20190;-48
2023/11/13 01:23:34;;;;;;;24.87;15.97;;;4.70;99.90;;;;;;5088666;27;20193;-49
2023/11/13 01:26:01;;;;;;;24.10;16.00;;;4.70;99.90;;;;;;5083600;28;20228;-47
2023/11/13 01:28:29;;;;;;;23.47;14.83;;;4.70;99.90;;;;;;5104719;28;20288;-50
2023/11/13 01:30:56;;;;;;;25.93;16.07;;;4.70;99.90;;;;;;5101759;27;20190;-46
2023/11/13 01:33:23;;;;;;;26.83;17.40;;;4.60;99.90;;;;;;5105375;28;20228;-45
2023/11/13 01:35:50;;;;;;;25.67;15.63;;;4.60;99.90;;;;;;5101883;27;20219;-45
2023/11/13 01:38:17;;;;;;;22.23;15.77;;;4.60;99.90;;;;;;5101000;28;20269;-46
2023/11/13 01:40:46;;;;;;;24.73;15.97;;;4.60;99.90;;;;;;5070087;27;20204;-44
2023/11/13 01:43:19;;;;;;;21.97;15.07;;;4.60;99.90;;;;;;5097331;28;20233;-44
2023/11/13 01:45:51;;;;;;;23.47;15.67;;;4.60;99.90;;;;;;5099787;28;20366;-46
2023/11/13 01:48:18;;;;;;;23.17;15.87;;;4.50;99.90;;;;;;5105209;27;20715;-45
2023/11/13 01:50:46;;;;;;;25.50;16.13;;;4.50;99.90;;;;;;5100232;27;20234;-45
2023/11/13 01:53:16;;;;;;;25.57;15.27;;;4.40;99.90;;;;;;5103676;28;20294;-46
2023/11/13 01:55:44;;;;;;;23.63;15.13;;;4.40;99.90;;;;;;5072037;28;20278;-48
2023/11/13 01:58:12;;;;;;;24.70;15.67;;;4.40;99.90;;;;;;5096146;28;20565;-44
2023/11/13 02:00:39;;;;;;;22.43;14.43;;;4.30;99.90;;;;;;5100554;28;20193;-48
2023/11/13 02:03:09;;;;;;;23.23;16.00;;;4.30;99.90;;;;;;5100616;28;20565;-44
2023/11/13 02:05:36;;;;;;;23.60;15.87;;;4.20;99.90;;;;;;5100498;28;20208;-47
2023/11/13 02:08:03;;;;;;;24.87;15.57;;;4.20;99.90;;;;;;5103097;28;20272;-46
2023/11/13 02:10:30;;;;;;;25.87;15.47;;;4.10;99.90;;;;;;5087785;28;20211;-48
2023/11/13 02:13:00;;;;;;;27.70;15.53;;;4.10;99.90;;;;;;5079099;28;20230;-46
2023/11/13 02:15:27;;;;;;;24.43;15.57;;;4.10;99.90;;;;;;5093893;28;20212;-46
2023/11/13 02:18:01;;;;;;;27.17;15.47;;;4.10;99.90;;;;;;5099749;28;20201;-46
2023/11/13 02:20:30;;;;;;;22.17;14.80;;;4.00;99.90;;;;;;5102926;28;20283;-50
2023/11/13 02:22:57;;;;;;;23.83;15.67;;;4.00;99.90;;;;;;5100345;28;20238;-46
2023/11/13 02:25:27;;;;;;;25.07;16.33;;;4.10;99.90;;;;;;5102250;28;20196;-50
2023/11/13 02:27:57;;;;;;;20.53;14.07;;;4.10;99.90;;;;;;5080524;28;20209;-46
2023/11/13 02:30:25;;;;;;;23.80;15.33;;;4.10;99.90;;;;;;5092119;28;20658;-48
2023/11/13 02:32:51;;;;;;;24.53;15.77;;;4.00;99.90;;;;;;5098716;28;20217;-46
2023/11/13 02:35:18;;;;;;;23.80;15.40;;;4.10;99.90;;;;;;5103917;28;20689;-47
2023/11/13 02:37:45;;;;;;;31.77;16.00;;;4.10;99.90;;;;;;5098997;28;20229;-44
2023/11/13 02:40:12;;;;;;;25.67;15.40;;;4.10;99.90;;;;;;5104091;28;20187;-44
2023/11/13 02:42:41;;;;;;;23.90;14.93;;;4.10;99.90;;;;;;5061697;27;20194;-48
2023/11/13 02:45:09;;;;;;;26.60;15.53;;;4.10;99.90;;;;;;5090891;27;20559;-46
2023/11/13 02:47:37;;;;;;;23.13;15.93;;;4.00;99.90;;;;;;5105796;27;20337;-50
2023/11/13 02:50:04;;;;;;;23.23;15.17;;;4.10;99.90;;;;;;5102940;28;20238;-45
2023/11/13 02:52:31;;;;;;;25.17;15.13;;;4.10;99.90;;;;;;5100479;28;20727;-49
2023/11/13 02:54:58;;;;;;;23.50;16.73;;;4.10;99.90;;;;;;5102116;27;20223;-46
2023/11/13 02:57:25;;;;;;;26.57;16.27;;;4.10;99.90;;;;;;5097758;28;20253;-45
2023/11/13 02:59:53;;;;;;;21.37;15.13;;;4.00;99.90;;;;;;5078327;28;20186;-47
2023/11/13 03:02:20;;;;;;;23.27;14.80;;;4.00;99.90;;;;;;5093255;27;20207;-47
2023/11/13 03:04:47;;;;;;;26.00;17.60;;;4.00;99.90;;;;;;5098410;28;20247;-49
2023/11/13 03:07:14;;;;;;;25.90;15.57;;;4.00;99.90;;;;;;5101788;28;20228;-47
2023/11/13 03:09:41;;;;;;;27.00;15.93;;;4.00;99.90;;;;;;5100691;27;20201;-50
2023/11/13 03:12:08;;;;;;;20.97;14.80;;;4.00;99.90;;;;;;5102272;28;20284;-46
2023/11/13 03:14:35;;;;;;;24.40;15.30;;;4.00;99.90;;;;;;5070521;27;20205;-49
2023/11/13 03:17:03;;;;;;;26.50;16.03;;;3.90;99.90;;;;;;5093427;28;20711;-47
2023/11/13 03:19:30;;;;;;;23.27;15.53;;;4.00;99.90;;;;;;5100247;28;20194;-48
2023/11/13 03:21:57;;;;;;;24.23;15.43;;;3.90;99.90;;;;;;5098876;28;20189;-51
2023/11/13 03:24:24;;;;;;;25.10;15.53;;;3.90;99.90;;;;;;5103412;27;20198;-48
2023/11/13 03:26:50;;;;;;;25.20;14.83;;;3.80;99.90;;;;;;5098676;28;20205;-50
2023/11/13 03:29:17;;;;;;;24.07;15.40;;;3.90;99.90;;;;;;5064647;28;20210;-44
2023/11/13 03:31:44;;;;;;;26.23;16.00;;;3.90;99.90;;;;;;5089355;28;20185;-46
2023/11/13 03:34:12;;;;;;;30.87;17.10;;;3.80;99.90;;;;;;5103153;28;20265;-46
2023/11/13 03:36:40;;;;;;;21.47;15.10;;;3.90;99.90;;;;;;5097864;28;20213;-47
2023/11/13 03:39:08;;;;;;;23.53;15.93;;;3.90;99.90;;;;;;5101347;28;20200;-48
2023/11/13 03:41:35;;;;;;;32.90;18.00;;;3.90;99.90;;;;;;5101030;27;20195;-47
2023/11/13 03:44:02;;;;;;;26.17;17.20;;;3.90;99.90;;;;;;5074421;28;20209;-45
2023/11/13 03:46:29;;;;;;;24.40;15.50;;;3.90;99.90;;;;;;5099141;28;20217;-46
2023/11/13 03:48:56;;;;;;;26.50;16.47;;;3.90;99.90;;;;;;5104698;27;20219;-48
2023/11/13 03:51:24;;;;;;;26.53;16.93;;;3.90;99.90;;;;;;5102728;28;20250;-48
2023/11/13 03:53:51;;;;;;;25.87;16.93;;;3.90;99.90;;;;;;5100335;27;20205;-49
2023/11/13 03:56:20;;;;;;;28.07;15.60;;;3.90;99.90;;;;;;5101722;28;20209;-44
2023/11/13 03:58:47;;;;;;;24.43;15.63;;;3.90;99.90;;;;;;5098537;28;20779;-47
2023/11/13 04:01:15;;;;;;;27.53;16.30;;;3.90;99.90;;;;;;5070487;28;20278;-46
2023/11/13 04:03:42;;;;;;;21.30;14.27;;;3.90;99.90;;;;;;5091239;28;20197;-47
2023/11/13 04:06:09;;;;;;;22.17;13.30;;;3.80;99.90;;;;;;5101774;28;20209;-44
2023/11/13 04:08:37;;;;;;;29.77;16.07;;;3.80;99.90;;;;;;5098558;28;20566;-46
2023/11/13 04:11:05;;;;;;;24.03;14.87;;;3.70;99.90;;;;;;5101835;28;20254;-44
2023/11/13 04:13:32;;;;;;;28.23;16.10;;;3.70;99.90;;;;;;5100288;28;20217;-48
2023/11/13 04:16:00;;;;;;;20.77;14.53;;;3.70;99.90;;;;;;5070390;28;20221;-46
2023/11/13 04:18:28;;;;;;;24.27;15.63;;;3.60;99.90;;;;;;5091857;28;20211;-48
2023/11/13 04:20:55;;;;;;;20.73;14.83;;;3.60;99.90;;;;;;5091915;28;20960;-47
2023/11/13 04:23:22;;;;;;;24.67;15.10;;;3.50;99.90;;;;;;5101920;28;20246;-51
2023/11/13 04:25:51;;;;;;;22.67;15.53;;;3.50;99.90;;;;;;5098370;28;20952;-44
2023/11/13 04:28:19;;;;;;;23.87;14.97;;;3.40;99.90;;;;;;5101822;28;20210;-44
2023/11/13 04:30:46;;;;;;;25.97;14.27;;;3.40;99.90;;;;;;5069606;28;20220;-47
2023/11/13 04:33:13;;;;;;;20.67;13.43;;;3.40;99.90;;;;;;5086953;28;20263;-44
2023/11/13 04:35:40;;;;;;;20.47;14.87;;;3.40;99.90;;;;;;5095203;28;20254;-46
2023/11/13 04:38:07;;;;;;;27.63;15.13;;;3.40;99.90;;;;;;5096824;28;20570;-45
2023/11/13 04:40:34;;;;;;;20.30;14.20;;;3.40;99.90;;;;;;5099400;28;20266;-47
2023/11/13 04:43:02;;;;;;;22.73;14.83;;;3.30;99.90;;;;;;5100070;28;20227;-46
2023/11/13 04:45:29;;;;;;;24.23;13.70;;;3.20;99.90;;;;;;5083834;28;20201;-47
2023/11/13 04:47:56;;;;;;;21.87;13.63;;;3.20;99.90;;;;;;5089980;28;20265;-44
2023/11/13 04:50:24;;;;;;;21.93;14.00;;;3.10;99.90;;;;;;5093777;28;20225;-47
2023/11/13 04:52:50;;;;;;;23.33;14.50;;;3.00;99.90;;;;;;5093213;28;20220;-45
2023/11/13 04:55:17;;;;;;;24.10;14.70;;;3.00;99.90;;;;;;5102427;28;20189;-44
2023/11/13 04:57:44;;;;;;;21.17;12.60;;;3.00;99.90;;;;;;5102134;28;20647;-44
2023/11/13 05:00:14;;;;;;;21.23;13.80;;;3.00;99.90;;;;;;5106355;27;20196;-46
2023/11/13 05:02:42;;;;;;;17.97;12.73;;;3.00;99.90;;;;;;5070437;27;20194;-46
2023/11/13 05:05:10;;;;;;;19.03;13.70;;;2.90;99.90;;;;;;5093821;28;20220;-46
2023/11/13 05:07:38;;;;;;;20.13;14.03;;;2.90;99.90;;;;;;5093548;28;20298;-47
2023/11/13 05:10:06;;;;;;;18.60;12.00;;;2.80;99.90;;;;;;5091218;28;20593;-49
2023/11/13 05:12:33;;;;;;;22.30;14.00;;;2.80;99.90;;;;;;5106128;27;20197;-46
2023/11/13 05:15:00;;;;;;;22.93;13.53;;;2.70;99.90;;;;;;5098135;27;20605;-49
2023/11/13 05:17:30;;;;;;;19.73;13.40;;;2.70;99.90;;;;;;5074945;27;20217;-45
2023/11/13 05:19:59;;;;;;;21.60;13.90;;;2.70;99.90;;;;;;5089048;28;20250;-47
2023/11/13 05:22:26;;;;;;;26.13;14.23;;;2.70;99.90;;;;;;5104439;27;20201;-45
2023/11/13 05:24:53;;;;;;;20.57;13.13;;;2.70;99.90;;;;;;5095910;27;20363;-49
2023/11/13 05:27:19;;;;;;;25.63;15.57;;;2.70;99.90;;;;;;5098472;28;20225;-46
2023/11/13 05:29:46;;;;;;;21.20;13.60;;;2.70;99.90;;;;;;5103960;27;20670;-47
2023/11/13 05:32:13;;;;;;;22.67;13.50;;;2.70;99.90;;;;;;5074029;27;21117;-46
2023/11/13 05:34:41;;;;;;;21.77;14.73;;;2.60;99.90;;;;;;5097436;27;20217;-45
2023/11/13 05:37:09;;;;;;;25.63;15.03;;;2.70;99.90;;;;;;5099487;28;20206;-45
2023/11/13 05:39:36;;;;;;;24.13;14.07;;;2.70;99.90;;;;;;5097437;28;20202;-44
2023/11/13 05:42:03;;;;;;;19.00;13.37;;;2.70;99.90;;;;;;5095112;28;20280;-46
2023/11/13 05:44:30;;;;;;;22.27;13.57;;;2.60;99.90;;;;;;5105469;28;20761;-45
2023/11/13 05:46:57;;;;;;;24.67;14.17;;;2.60;99.90;;;;;;5099885;28;20279;-46
2023/11/13 05:49:24;;;;;;;24.30;13.90;;;2.60;99.90;;;;;;5074338;27;20197;-44
2023/11/13 05:51:52;;;;;;;21.90;13.77;;;2.60;99.90;;;;;;5095207;27;20293;-46
2023/11/13 05:54:19;;;;;;;23.67;14.70;;;2.50;99.90;;;;;;5092363;27;20209;-48
2023/11/13 05:56:46;;;;;;;25.47;14.23;;;2.50;99.90;;;;;;5105433;28;20289;-46
2023/11/13 05:59:14;;;;;;;21.10;13.23;;;2.40;99.90;;;;;;5094932;28;20922;-44
2023/11/13 06:01:41;;;;;;;20.47;14.10;;;2.30;99.90;;;;;;5100005;28;20220;-46
2023/11/13 06:04:08;;;;;;;18.80;12.43;;;2.30;99.90;;;;;;5080412;27;20947;-44
2023/11/13 06:06:35;;;;;;;21.77;14.73;;;2.30;99.90;;;;;;5099384;27;20217;-46
2023/11/13 06:09:04;;;;;;;27.10;14.20;;;2.30;99.90;;;;;;5097219;27;20194;-46
2023/11/13 06:11:32;;;;;;;24.00;15.17;;;2.40;99.90;;;;;;5102031;28;20264;-43
2023/11/13 06:13:59;;;;;;;20.40;13.87;;;2.40;99.90;;;;;;5093845;28;20643;-44
2023/11/13 06:16:27;;;;;;;22.80;13.93;;;2.40;99.90;;;;;;5103100;27;20224;-45
2023/11/13 06:18:54;;;;;;;23.93;14.20;;;2.40;99.90;;;;;;5093181;28;20217;-44
2023/11/13 06:21:21;;;;;;;21.50;13.77;;;2.40;99.90;;;;;;5089754;28;20197;-45
2023/11/13 06:23:48;;;;;;;22.00;13.73;;;2.40;99.90;;;;;;5104036;27;20200;-45
2023/11/13 06:26:16;;;;;;;25.10;14.50;;;2.50;99.90;;;;;;5109970;27;20215;-43
2023/11/13 06:28:43;;;;;;;22.10;13.40;;;2.40;99.90;;;;;;5106174;27;20247;-43
2023/11/13 06:31:10;;;;;;;26.27;13.83;;;2.40;99.90;;;;;;5094029;28;20201;-44
2023/11/13 06:33:38;;;;;;;21.80;13.03;;;2.30;99.90;;;;;;5100412;28;20278;-44
2023/11/13 06:36:05;;;;;;;22.73;13.37;;;2.30;99.90;;;;;;5078035;27;20306;-44
2023/11/13 06:38:32;;;;;;;19.43;12.97;;;2.30;99.90;;;;;;5098021;27;20196;-43
2023/11/13 06:41:00;;;;;;;21.57;14.33;;;2.30;99.90;;;;;;5095013;28;20281;-44
2023/11/13 06:43:28;;;;;;;19.53;12.63;;;2.20;99.90;;;;;;5098408;27;20272;-45
2023/11/13 06:45:55;;;;;;;20.90;13.03;;;2.20;99.90;;;;;;5111461;27;20228;-43
2023/11/13 06:48:22;;;;;;;22.07;13.40;;;2.20;99.90;;;;;;5105897;27;20224;-45
2023/11/13 06:50:49;;;;;;;27.90;14.00;;;2.20;99.90;;;;;;5067642;28;20212;-44
2023/11/13 06:53:16;;;;;;;22.10;13.07;;;2.20;99.90;;;;;;5104305;27;20209;-44
2023/11/13 06:55:43;;;;;;;18.93;12.90;;;2.30;99.90;;;;;;5101103;28;20185;-45
2023/11/13 06:58:10;;;;;;;21.07;13.40;;;2.30;99.90;;;;;;5089211;27;20842;-47
2023/11/13 07:00:39;;;;;;;21.63;13.37;;;2.30;99.90;;;;;;5104405;28;20193;-43
2023/11/13 07:03:05;;;;;;;21.43;13.47;;;2.30;99.90;;;;;;5094649;28;20205;-44
2023/11/13 07:05:32;;;;;;;19.57;13.60;;;2.40;99.90;;;;;;5089482;27;20648;-44
2023/11/13 07:07:59;;;;;;;17.23;11.97;;;2.40;99.90;;;;;;5097928;27;20205;-46
2023/11/13 07:10:33;;;;;;;20.37;13.20;;;2.40;99.90;;;;;;5098713;27;20220;-44
2023/11/13 07:13:00;;;;;;;21.00;13.10;;;2.40;99.90;;;;;;5095375;27;20205;-44
2023/11/13 07:15:26;;;;;;;19.97;11.97;;;2.40;99.90;;;;;;5102985;27;20189;-44
2023/11/13 07:17:55;;;;;;;17.77;11.40;;;2.30;99.90;;;;;;5108010;27;20225;-45
2023/11/13 07:20:22;;;;;;;17.93;12.53;;;2.30;99.90;;;;;;5080375;28;20290;-44
2023/11/13 07:22:50;;;;;;;18.83;12.67;;;2.40;99.90;;;;;;5098226;28;20735;-45
2023/11/13 07:25:17;;;;;;;20.23;13.03;;;2.40;99.90;;;;;;5094962;27;20197;-46
2023/11/13 07:27:44;;;;;;;19.37;12.93;;;2.40;99.90;;;;;;5106504;27;20282;-44
2023/11/13 07:30:11;;;;;;;21.73;12.67;;;2.40;99.90;;;;;;5100166;28;20919;-44
2023/11/13 07:32:38;;;;;;;19.37;12.97;;;2.40;99.90;;;;;;5106452;27;20194;-43
2023/11/13 07:35:07;;;;;;;18.23;12.10;;;2.40;99.90;;;;;;5100173;27;20209;-44
2023/11/13 07:37:34;;;;;;;18.27;12.23;;;2.50;99.90;;;;;;5083310;28;20308;-44
2023/11/13 07:40:01;;;;;;;16.07;11.47;;;2.60;99.90;;;;;;5089497;28;20226;-44
2023/11/13 07:42:29;;;;;;;25.47;12.40;;;2.60;99.90;;;;;;5088548;28;20284;-45
2023/11/13 07:44:58;;;;;;;22.07;12.73;;;2.70;99.90;;;;;;5093546;28;20250;-44
2023/11/13 07:47:27;;;;;;;18.70;11.93;;;2.70;99.90;;;;;;5094019;28;20270;-46
2023/11/13 07:49:56;;;;;;;20.53;12.50;;;2.80;99.90;;;;;;5102383;28;20928;-46
2023/11/13 07:52:26;;;;;;;19.90;12.27;;;2.80;99.90;;;;;;5080977;28;20217;-44
2023/11/13 07:54:54;;;;;;;20.10;12.23;;;2.80;99.90;;;;;;5089799;28;20804;-44
2023/11/13 07:57:21;;;;;;;18.03;12.70;;;2.90;99.90;;;;;;5093592;27;20309;-44
2023/11/13 07:59:48;;;;;;;18.63;12.30;;;2.90;99.90;;;;;;5089362;28;20217;-44
2023/11/13 08:02:19;;;;;;;19.63;12.03;;;3.00;99.90;;;;;;5090228;28;20194;-45
2023/11/13 08:04:46;;;;;;;20.97;12.43;;;3.10;99.90;;;;;;5095549;28;20272;-46
2023/11/13 08:07:13;;;;;;;20.87;13.00;;;3.10;99.90;;;;;;5076210;28;20921;-44
2023/11/13 08:09:43;;;;;;;17.80;11.70;;;3.20;99.90;;;;;;5094802;28;20193;-44
2023/11/13 08:12:11;;;;;;;20.57;13.57;;;3.30;99.90;;;;;;5094839;27;20205;-44
2023/11/13 08:14:38;;;;;;;20.77;12.27;;;3.40;99.90;;;;;;5094723;27;20653;-46
2023/11/13 08:17:05;;;;;;;18.47;12.00;;;3.50;99.90;;;;;;5088816;28;20263;-43
2023/11/13 08:19:32;;;;;;;18.30;12.33;;;3.60;99.90;;;;;;5097286;28;20261;-46
2023/11/13 08:22:00;;;;;;;21.60;12.30;;;3.60;99.90;;;;;;5080924;28;20297;-44
2023/11/13 08:24:27;;;;;;;19.07;11.50;;;3.70;99.90;;;;;;5096698;28;20288;-45
2023/11/13 08:26:55;;;;;;;19.63;12.47;;;3.70;99.90;;;;;;5096262;28;20217;-44
2023/11/13 08:29:24;;;;;;;18.40;11.63;;;3.80;99.90;;;;;;5094172;28;20212;-46
2023/11/13 08:31:51;;;;;;;19.60;12.10;;;3.90;99.90;;;;;;5099087;27;20690;-44
2023/11/13 08:34:19;;;;;;;19.70;11.80;;;3.90;99.90;;;;;;5099173;28;20596;-44
2023/11/13 08:36:46;;;;;;;19.20;12.20;;;3.90;99.90;;;;;;5104183;27;20209;-44
2023/11/13 08:39:16;;;;;;;18.50;11.47;;;4.00;99.90;;;;;;5076098;28;20216;-44
2023/11/13 08:41:44;;;;;;;17.37;11.90;;;4.00;99.90;;;;;;5097909;27;20201;-43
2023/11/13 08:44:12;;;;;;;17.30;11.97;;;4.00;99.90;;;;;;5099237;27;20527;-44
2023/11/13 08:46:40;;;;;;;18.03;11.47;;;4.10;99.90;;;;;;5099660;27;20243;-46
2023/11/13 08:49:07;;;;;;;16.83;11.20;;;4.30;99.90;;;;;;5097695;27;20226;-45
2023/11/13 08:51:34;;;;;;;18.17;12.23;;;4.50;99.90;;;;;;5099197;28;20208;-44
2023/11/13 08:54:01;;;;;;;16.67;11.53;;;4.60;99.90;;;;;;5092502;27;20208;-44
2023/11/13 08:56:28;;;;;;;15.37;10.90;;;4.60;99.90;;;;;;5096311;27;20229;-46
2023/11/13 08:58:58;;;;;;;17.53;11.00;;;4.60;99.90;;;;;;5101084;27;20189;-44
2023/11/13 09:01:28;;;;;;;19.80;11.57;;;4.60;99.90;;;;;;5100899;28;20201;-46
2023/11/13 09:03:55;;;;;;;14.43;10.17;;;4.60;99.90;;;;;;5098589;27;20933;-44
2023/11/13 09:06:22;;;;;;;16.50;10.27;;;4.70;99.90;;;;;;5104446;27;20278;-45
2023/11/13 09:08:53;;;;;;;14.87;9.83;;;4.70;99.90;;;;;;5083338;27;20201;-45
2023/11/13 09:11:21;;;;;;;14.57;9.53;;;4.80;99.90;;;;;;5101858;27;20198;-46
2023/11/13 09:13:48;;;;;;;11.50;8.77;;;4.80;99.90;;;;;;5097855;28;20242;-43
2023/11/13 09:16:15;;;;;;;13.13;9.30;;;4.90;99.90;;;;;;5100540;28;20229;-43
2023/11/13 09:18:48;;;;;;;14.07;9.23;;;4.90;99.90;;;;;;5091905;28;20213;-45
2023/11/13 09:21:17;;;;;;;10.63;8.27;;;4.90;99.90;;;;;;5106637;27;20810;-45
2023/11/13 09:23:45;;;;;;;13.27;8.57;;;5.00;99.90;;;;;;5082007;27;20224;-44
2023/11/13 09:26:12;;;;;;;9.63;7.83;;;5.00;99.90;;;;;;5100349;27;20225;-46
2023/11/13 09:28:39;;;;;;;12.13;9.00;;;5.10;99.90;;;;;;5097365;27;20330;-44
2023/11/13 09:31:09;;;;;;;9.70;8.60;;;5.20;99.90;;;;;;5101026;27;20665;-44
2023/11/13 09:33:39;;;;;;;10.50;8.27;;;5.20;99.90;;;;;;5096006;28;20230;-44
2023/11/13 09:36:08;;;;;;;12.43;8.63;;;5.30;99.90;;;;;;5105678;28;20274;-45
2023/11/13 09:38:35;;;;;;;12.50;8.80;;;5.40;99.90;;;;;;5101466;28;20280;-45
2023/11/13 09:41:03;;;;;;;10.30;7.83;;;5.50;99.90;;;;;;5082547;27;20269;-44
2023/11/13 09:43:34;;;;;;;10.67;6.83;;;5.50;99.90;;;;;;5096745;27;20311;-46
2023/11/13 09:46:06;;;;;;;7.53;6.70;;;5.50;99.90;;;;;;5097168;27;20240;-44
2023/11/13 09:48:43;;;;;;;8.83;6.87;;;5.60;99.90;;;;;;5097536;27;20275;-44
2023/11/13 09:51:17;;;;;;;7.90;6.33;;;5.70;99.90;;;;;;5104080;27;20197;-44
2023/11/13 09:53:45;;;;;;;8.40;6.10;;;5.90;99.90;;;;;;5100195;28;20194;-44
2023/11/13 09:56:15;;;;;;;10.77;5.93;;;5.90;99.90;;;;;;5088139;27;20213;-46
2023/11/13 09:58:43;;;;;;;11.27;5.53;;;5.90;99.90;;;;;;5093029;28;20190;-43
2023/11/13 10:01:13;;;;;;;7.07;5.33;;;5.80;99.90;;;;;;5092873;28;20201;-46
2023/11/13 10:03:41;;;;;;;7.70;4.73;;;5.80;99.90;;;;;;5094367;27;20207;-45
2023/11/13 10:06:11;;;;;;;8.20;4.97;;;5.80;99.90;;;;;;5096323;27;20224;-43
2023/11/13 10:08:43;;;;;;;5.73;4.47;;;5.80;99.90;;;;;;5100162;28;20189;-46
2023/11/13 10:11:11;;;;;;;6.50;5.30;;;5.80;99.90;;;;;;5106922;27;20224;-45
2023/11/13 10:13:38;;;;;;;7.53;4.83;;;5.90;99.90;;;;;;5057923;28;20224;-44
2023/11/13 10:16:20;;;;;;;7.80;5.30;;;5.90;99.90;;;;;;5103081;28;20217;-43
2023/11/13 10:18:49;;;;;;;9.00;5.40;;;6.00;99.90;;;;;;5096117;28;20284;-43
2023/11/13 10:21:22;;;;;;;7.70;4.77;;;6.00;99.90;;;;;;5095962;28;20663;-43
2023/11/13 10:23:50;;;;;;;8.03;4.80;;;6.10;99.90;;;;;;5094291;27;21039;-43
2023/11/13 10:26:26;;;;;;;5.63;4.40;;;6.20;99.90;;;;;;5091409;28;20267;-42
2023/11/13 10:28:54;;;;;;;7.67;4.67;;;6.30;99.90;;;;;;5088387;27;20207;-44
2023/11/13 10:31:23;;;;;;;6.97;4.60;;;6.40;99.90;;;;;;5103630;27;20537;-42
2023/11/13 10:33:59;;;;;;;8.70;4.50;;;6.40;99.90;;;;;;5090413;28;20192;-45
2023/11/13 10:36:26;;;;;;;6.00;4.03;;;6.40;99.90;;;;;;5093903;28;20297;-41
2023/11/13 10:38:57;;;;;;;4.20;3.77;;;6.50;99.90;;;;;;5101212;27;20284;-44
2023/11/13 10:41:27;;;;;;;5.23;4.30;;;6.60;99.90;;;;;;5082237;28;20228;-41
2023/11/13 10:43:54;;;;;;;6.10;4.50;;;6.80;99.90;;;;;;5091888;27;20205;-42
2023/11/13 10:46:29;;;;;;;7.77;4.33;;;6.80;99.90;;;;;;5106518;27;20876;-41
2023/11/13 10:48:57;;;;;;;6.70;4.63;;;6.80;99.90;;;;;;5097594;27;20205;-43
2023/11/13 10:51:25;;;;;;;6.67;4.03;;;6.70;99.90;;;;;;5098981;27;20226;-41
2023/11/13 10:53:54;;;;;;;5.13;4.53;;;6.80;99.90;;;;;;5093115;28;20197;-42
2023/11/13 10:56:24;;;;;;;7.37;4.50;;;6.80;99.90;;;;;;5083469;28;20217;-41
2023/11/13 10:58:51;;;;;;;7.67;4.70;;;6.80;99.90;;;;;;5073582;27;21042;-46
2023/11/13 11:01:24;;;;;;;5.87;5.27;;;6.90;99.90;;;;;;5102188;28;20387;-41
2023/11/13 11:03:53;;;;;;;5.10;4.53;;;6.90;99.90;;;;;;5090391;27;20198;-43
2023/11/13 11:06:22;;;;;;;10.63;5.33;;;6.80;99.90;;;;;;5098712;27;20220;-42
2023/11/13 11:08:50;;;;;;;7.20;5.17;;;6.80;99.90;;;;;;5093305;27;20931;-44
2023/11/13 11:11:25;;;;;;;7.60;5.20;;;6.80;99.90;;;;;;5086054;28;20198;-44
2023/11/13 11:13:57;;;;;;;7.10;4.60;;;6.80;99.90;;;;;;5059882;28;20197;-42
2023/11/13 11:16:31;;;;;;;5.90;5.30;;;6.90;99.90;;;;;;5092706;28;20623;-45
2023/11/13 11:19:07;;;;;;;8.33;5.70;;;6.90;99.90;;;;;;5087600;28;21605;-45
2023/11/13 11:21:44;;;;;;;7.37;5.30;;;6.90;99.90;;;;;;5094626;28;20193;-43
2023/11/13 11:24:21;;;;;;;7.43;5.00;;;7.00;99.90;;;;;;5092223;28;20193;-42
2023/11/13 11:26:53;;;;;;;6.37;5.07;;;7.00;99.90;;;;;;5073546;27;20297;-43
2023/11/13 11:29:34;;;;;;;6.47;4.83;;;7.10;99.90;;;;;;5077519;28;20663;-45
2023/11/13 11:32:10;;;;;;;5.87;4.63;;;7.20;99.90;;;;;;5087720;28;20317;-45
2023/11/13 11:34:39;;;;;;;4.70;4.20;;;7.20;99.90;;;;;;5095622;27;20273;-43
2023/11/13 11:37:10;;;;;;;6.90;4.87;;;7.20;99.90;;;;;;5097824;28;20208;-46
2023/11/13 11:39:48;;;;;;;8.20;4.83;;;7.30;99.90;;;;;;5091595;28;20197;-43
2023/11/13 11:42:19;;;;;;;6.67;5.50;;;7.30;99.90;;;;;;5100511;28;20193;-46
2023/11/13 11:44:48;;;;;;;7.33;4.77;;;7.30;99.90;;;;;;5058141;27;20233;-42
2023/11/13 11:47:25;;;;;;;6.77;5.07;;;7.40;99.90;;;;;;5092826;28;20221;-45
2023/11/13 11:49:53;;;;;;;7.60;4.67;;;7.40;99.90;;;;;;5076178;28;20216;-43
2023/11/13 11:52:40;;;;;;;5.47;4.53;;;7.40;99.90;;;;;;5111599;27;20197;-45
2023/11/13 11:55:12;;;;;;;5.17;4.67;;;7.40;99.90;;;;;;5091343;28;20216;-43
2023/11/13 11:57:44;;;;;;;7.13;5.20;;;7.40;99.90;;;;;;5100259;28;20746;-43
2023/11/13 12:00:15;;;;;;;5.03;3.90;;;7.40;99.90;;;;;;5052306;28;20216;-43
2023/11/13 12:02:43;;;;;;;4.23;3.83;;;7.40;99.90;;;;;;5084607;28;20682;-43
2023/11/13 12:05:10;;;;;;;5.20;3.97;;;7.40;99.90;;;;;;5100179;28;20201;-43
2023/11/13 12:07:37;;;;;;;6.70;3.93;;;7.40;99.90;;;;;;5086792;28;20244;-42
2023/11/13 12:10:08;;;;;;;4.43;4.00;;;7.50;99.90;;;;;;5090544;28;20205;-43
2023/11/13 12:12:36;;;;;;;7.43;4.00;;;7.50;99.90;;;;;;5100973;27;20221;-42
2023/11/13 12:15:06;;;;;;;4.37;3.73;;;7.50;99.90;;;;;;5066092;28;21446;-46
2023/11/13 12:17:34;;;;;;;6.33;3.87;;;7.60;99.90;;;;;;5090791;28;20220;-42
2023/11/13 12:20:06;;;;;;;4.67;4.00;;;7.70;99.90;;;;;;5087804;28;20197;-44
2023/11/13 12:22:34;;;;;;;8.73;3.70;;;7.70;99.90;;;;;;5089955;28;20287;-42
2023/11/13 12:25:03;;;;;;;3.90;3.60;;;7.80;99.90;;;;;;5101337;28;20181;-46
2023/11/13 12:27:31;;;;;;;3.57;3.27;;;7.90;99.90;;;;;;5094520;28;20884;-44
2023/11/13 12:30:03;;;;;;;5.00;2.87;;;7.90;99.90;;;;;;5096317;28;20190;-44
2023/11/13 12:32:32;;;;;;;3.90;3.10;;;8.00;99.90;;;;;;5058718;28;20695;-46
2023/11/13 12:35:01;;;;;;;3.80;3.40;;;8.00;99.90;;;;;;5090142;28;20258;-51
2023/11/13 12:37:28;;;;;;;5.30;3.67;;;8.00;99.90;;;;;;5090177;28;20217;-44
2023/11/13 12:39:55;;;;;;;3.93;2.77;;;8.00;99.90;;;;;;5093680;28;20356;-45
2023/11/13 12:42:22;;;;;;;4.43;3.00;;;8.00;99.90;;;;;;5091616;28;20205;-46
2023/11/13 12:44:50;;;;;;;3.73;2.80;;;8.00;99.90;;;;;;5098639;28;20189;-47
2023/11/13 12:47:17;;;;;;;3.60;2.93;;;8.00;99.90;;;;;;5056986;28;20644;-44